createdAt,value
2022-10-06T00:00:28.059Z,18.98
2022-10-06T00:02:54.547Z,19.85
2022-10-06T00:05:21.057Z,19.35
2022-10-06T00:07:47.649Z,21.92
2022-10-06T00:10:14.112Z,20.38
2022-10-06T00:12:45.141Z,20.15
2022-10-06T00:15:12.966Z,21.27
2022-10-06T00:17:39.618Z,21.85
2022-10-06T00:20:06.785Z,22.35
2022-10-06T00:22:36.842Z,20.13
2022-10-06T00:25:04.087Z,21.13
2022-10-06T00:27:37.526Z,19.20
2022-10-06T00:30:04.558Z,23.13
2022-10-06T00:32:31.122Z,22.73
2022-10-06T00:34:59.087Z,19.85
2022-10-06T00:37:26.252Z,21.70
2022-10-06T00:39:52.780Z,22.25
2022-10-06T00:42:23.331Z,21.45
2022-10-06T00:44:50.092Z,24.27
2022-10-06T00:47:17.492Z,22.23
2022-10-06T00:49:45.251Z,23.77
2022-10-06T00:52:14.077Z,26.60
2022-10-06T00:54:40.928Z,21.13
2022-10-06T00:57:07.731Z,23.92
2022-10-06T00:59:35.325Z,23.55
2022-10-06T01:02:01.749Z,23.50
2022-10-06T01:04:31.274Z,21.75
2022-10-06T01:06:58.950Z,24.48
2022-10-06T01:09:26.555Z,24.23
2022-10-06T01:11:53.813Z,21.77
2022-10-06T01:14:21.249Z,24.15
2022-10-06T01:16:49.720Z,22.10
2022-10-06T01:19:35.931Z,23.25
2022-10-06T01:22:06.187Z,22.52
2022-10-06T01:24:35.013Z,23.35
2022-10-06T01:27:02.699Z,25.77
2022-10-06T01:29:31.385Z,23.92
2022-10-06T01:31:57.944Z,22.63
2022-10-06T01:34:24.448Z,21.98
2022-10-06T01:36:50.868Z,22.15
2022-10-06T01:39:17.284Z,25.40
2022-10-06T01:41:45.368Z,23.30
2022-10-06T01:44:11.769Z,23.83
2022-10-06T01:46:38.313Z,22.25
2022-10-06T01:49:04.849Z,23.23
2022-10-06T01:51:31.408Z,24.77
2022-10-06T01:53:58.056Z,24.77
2022-10-06T01:56:24.555Z,21.90
2022-10-06T01:58:51.022Z,21.13
2022-10-06T02:01:17.923Z,23.40
2022-10-06T02:03:44.471Z,23.60
2022-10-06T02:06:11.087Z,21.77
2022-10-06T02:08:38.031Z,21.98
2022-10-06T02:11:06.994Z,22.90
2022-10-06T02:13:33.502Z,22.67
2022-10-06T02:16:00.061Z,23.83
2022-10-06T02:18:27.333Z,22.27
2022-10-06T02:20:54.428Z,23.05
2022-10-06T02:23:20.876Z,22.52
2022-10-06T02:25:47.418Z,23.70
2022-10-06T02:28:16.794Z,23.02
2022-10-06T02:30:44.289Z,22.85
2022-10-06T02:33:11.019Z,23.02
2022-10-06T02:35:37.490Z,23.20
2022-10-06T02:38:03.985Z,22.27
2022-10-06T02:40:31.102Z,22.83
2022-10-06T02:42:58.142Z,22.73
2022-10-06T02:45:24.653Z,23.48
2022-10-06T02:47:51.780Z,24.77
2022-10-06T02:50:18.521Z,21.48
2022-10-06T02:52:45.920Z,21.65
2022-10-06T02:55:13.272Z,22.05
2022-10-06T02:57:39.759Z,24.40
2022-10-06T03:00:07.392Z,21.67
2022-10-06T03:02:34.441Z,22.92
2022-10-06T03:05:01.090Z,22.38
2022-10-06T03:07:27.561Z,20.67
2022-10-06T03:09:54.349Z,21.20
2022-10-06T03:12:23.127Z,24.30
2022-10-06T03:14:49.574Z,22.65
2022-10-06T03:17:16.176Z,23.15
2022-10-06T03:19:48.913Z,23.33
2022-10-06T03:22:15.407Z,22.58
2022-10-06T03:24:47.268Z,22.05
2022-10-06T03:27:13.769Z,22.80
2022-10-06T03:29:40.374Z,22.17
2022-10-06T03:32:07.400Z,23.40
2022-10-06T03:34:34.607Z,24.33
2022-10-06T03:37:03.777Z,21.55
2022-10-06T03:39:30.366Z,23.20
2022-10-06T03:41:56.884Z,24.83
2022-10-06T03:44:23.392Z,23.05
2022-10-06T03:46:49.978Z,24.05
2022-10-06T03:49:16.568Z,21.75
2022-10-06T03:51:43.183Z,23.48
2022-10-06T03:54:18.492Z,23.10
2022-10-06T03:56:47.291Z,21.38
2022-10-06T03:59:16.434Z,23.52
2022-10-06T04:01:46.061Z,22.77
2022-10-06T04:04:16.867Z,22.63
2022-10-06T04:06:46.870Z,24.10
2022-10-06T04:09:16.910Z,21.55
2022-10-06T04:11:44.815Z,22.30
2022-10-06T04:14:13.728Z,23.65
2022-10-06T04:16:41.483Z,24.02
2022-10-06T04:19:10.105Z,25.98
2022-10-06T04:21:41.168Z,25.65
2022-10-06T04:24:13.558Z,24.23
2022-10-06T04:26:48.709Z,25.88
2022-10-06T04:29:15.964Z,25.30
2022-10-06T04:31:44.468Z,27.35
2022-10-06T04:36:46.674Z,24.00
2022-10-06T04:39:15.829Z,26.08
2022-10-06T04:41:48.101Z,24.23
2022-10-06T04:44:19.600Z,23.50
2022-10-06T04:46:47.175Z,26.80
2022-10-06T04:49:19.913Z,25.75
2022-10-06T04:51:49.452Z,24.45
2022-10-06T04:54:16.396Z,24.92
2022-10-06T04:56:43.050Z,26.58
2022-10-06T04:59:10.021Z,25.88
2022-10-06T05:01:38.701Z,26.75
2022-10-06T05:04:09.790Z,26.00
2022-10-06T05:06:38.209Z,24.85
2022-10-06T05:09:15.824Z,25.38
2022-10-06T05:11:50.808Z,25.00
2022-10-06T05:14:19.917Z,25.13
2022-10-06T05:16:48.805Z,23.05
2022-10-06T05:19:16.025Z,26.92
2022-10-06T05:21:42.759Z,25.95
2022-10-06T05:24:12.727Z,25.60
2022-10-06T05:26:39.236Z,29.40
2022-10-06T05:29:09.494Z,23.70
2022-10-06T05:31:43.040Z,26.20
2022-10-06T05:34:10.210Z,25.50
2022-10-06T05:36:37.029Z,25.20
2022-10-06T05:39:05.497Z,22.90
2022-10-06T05:41:40.740Z,25.45
2022-10-06T05:44:09.455Z,24.73
2022-10-06T05:46:38.147Z,27.17
2022-10-06T05:49:10.505Z,24.27
2022-10-06T05:51:40.747Z,24.52
2022-10-06T05:54:14.276Z,24.77
2022-10-06T05:56:41.702Z,21.98
2022-10-06T05:59:08.193Z,25.20
2022-10-06T06:01:40.029Z,19.88
2022-10-06T06:04:13.274Z,19.10
2022-10-06T06:09:21.281Z,18.37
2022-10-06T06:11:53.590Z,17.65
2022-10-06T06:14:43.616Z,13.48
2022-10-06T06:17:13.178Z,14.50
2022-10-06T06:19:39.692Z,12.93
2022-10-06T06:22:07.669Z,12.43
2022-10-06T06:24:37.467Z,11.35
2022-10-06T06:27:04.113Z,10.52
2022-10-06T06:29:30.538Z,9.77
2022-10-06T06:31:57.033Z,8.73
2022-10-06T06:34:25.313Z,6.32
2022-10-06T06:36:55.077Z,8.15
2022-10-06T06:39:21.645Z,6.25
2022-10-06T06:41:50.099Z,7.35
2022-10-06T06:44:35.538Z,6.38
2022-10-06T06:47:06.119Z,6.63
2022-10-06T06:49:32.850Z,7.93
2022-10-06T06:52:05.195Z,8.70
2022-10-06T06:54:33.854Z,7.78
2022-10-06T06:57:05.403Z,9.23
2022-10-06T06:59:34.049Z,6.43
2022-10-06T07:02:01.184Z,6.57
2022-10-06T07:04:30.545Z,9.88
2022-10-06T07:06:58.507Z,10.60
2022-10-06T07:09:28.403Z,6.80
2022-10-06T07:12:01.064Z,6.20
2022-10-06T07:14:28.567Z,5.85
2022-10-06T07:17:13.796Z,9.27
2022-10-06T07:19:50.960Z,7.75
2022-10-06T07:22:38.300Z,8.45
2022-10-06T07:25:37.439Z,7.63
2022-10-06T07:28:12.138Z,9.32
2022-10-06T07:30:41.003Z,9.55
2022-10-06T07:33:18.053Z,8.40
2022-10-06T07:35:45.077Z,7.03
2022-10-06T07:38:13.137Z,9.30
2022-10-06T07:40:46.474Z,8.40
2022-10-06T07:43:29.725Z,6.75
2022-10-06T07:45:56.575Z,8.95
2022-10-06T07:48:31.093Z,8.02
2022-10-06T07:50:59.780Z,7.75
2022-10-06T07:53:30.995Z,6.45
2022-10-06T07:56:07.615Z,6.80
2022-10-06T07:58:40.898Z,7.57
2022-10-06T08:01:08.797Z,11.18
2022-10-06T08:03:36.680Z,9.35
2022-10-06T08:06:03.214Z,7.15
2022-10-06T08:08:30.576Z,8.07
2022-10-06T08:11:00.356Z,8.23
2022-10-06T08:13:27.920Z,7.05
2022-10-06T08:15:56.506Z,7.18
2022-10-06T08:18:45.600Z,5.88
2022-10-06T08:21:15.800Z,8.68
2022-10-06T08:23:42.783Z,7.25
2022-10-06T08:26:10.034Z,7.53
2022-10-06T08:28:37.127Z,8.65
2022-10-06T08:31:07.341Z,7.35
2022-10-06T08:33:35.949Z,6.95
2022-10-06T08:36:04.292Z,8.90
2022-10-06T08:38:31.679Z,8.45
2022-10-06T08:40:58.409Z,9.13
2022-10-06T08:43:26.001Z,5.63
2022-10-06T08:48:28.733Z,7.72
2022-10-06T08:51:07.143Z,6.10
2022-10-06T08:53:47.107Z,6.80
2022-10-06T08:56:34.150Z,5.80
2022-10-06T08:59:05.794Z,6.72
2022-10-06T09:01:38.978Z,6.68
2022-10-06T09:04:07.665Z,6.43
2022-10-06T09:06:49.491Z,5.57
2022-10-06T09:09:34.695Z,7.22
2022-10-06T09:12:20.571Z,6.35
2022-10-06T09:14:56.614Z,8.20
2022-10-06T09:17:26.464Z,6.88
2022-10-06T09:19:53.133Z,6.78
2022-10-06T09:22:21.094Z,6.65
2022-10-06T09:24:51.184Z,5.82
2022-10-06T09:27:17.894Z,5.95
2022-10-06T09:29:45.437Z,6.85
2022-10-06T09:32:12.355Z,6.75
2022-10-06T09:34:40.755Z,5.32
2022-10-06T09:37:10.745Z,5.60
2022-10-06T09:39:38.693Z,6.63
2022-10-06T09:42:17.428Z,5.30
2022-10-06T09:44:45.012Z,4.85
2022-10-06T09:47:22.649Z,5.68
2022-10-06T09:50:20.614Z,5.47
2022-10-06T09:53:05.561Z,7.00
2022-10-06T09:55:37.902Z,5.15
2022-10-06T09:58:24.663Z,6.38
2022-10-06T10:00:55.999Z,5.75
2022-10-06T10:03:26.039Z,5.40
2022-10-06T10:05:55.661Z,6.88
2022-10-06T10:08:24.396Z,5.82
2022-10-06T10:11:29.346Z,6.95
2022-10-06T10:13:57.797Z,6.25
2022-10-06T10:16:28.604Z,5.85
2022-10-06T10:18:55.549Z,5.60
2022-10-06T10:21:26.080Z,5.22
2022-10-06T10:23:55.356Z,5.43
2022-10-06T10:26:26.983Z,6.68
2022-10-06T10:28:56.965Z,5.78
2022-10-06T10:31:32.874Z,6.90
2022-10-06T10:34:23.170Z,5.43
2022-10-06T10:36:51.104Z,5.97
2022-10-06T10:39:36.171Z,5.32
2022-10-06T10:42:04.894Z,6.28
2022-10-06T10:44:37.265Z,5.57
2022-10-06T10:47:14.067Z,4.68
2022-10-06T10:49:43.355Z,4.43
2022-10-06T10:52:13.799Z,5.63
2022-10-06T10:54:46.482Z,5.13
2022-10-06T10:57:16.185Z,8.10
2022-10-06T10:59:42.832Z,7.18
2022-10-06T11:02:13.743Z,6.45
2022-10-06T11:04:41.942Z,5.25
2022-10-06T11:07:29.447Z,6.05
2022-10-06T11:10:11.062Z,14.13
2022-10-06T11:12:52.540Z,6.82
2022-10-06T11:15:39.210Z,5.45
2022-10-06T11:18:19.462Z,5.28
2022-10-06T11:21:08.252Z,4.53
2022-10-06T11:23:50.973Z,5.50
2022-10-06T11:26:26.366Z,6.30
2022-10-06T11:28:58.602Z,5.35
2022-10-06T11:31:28.018Z,6.68
2022-10-06T11:33:55.603Z,5.43
2022-10-06T11:36:31.723Z,4.93
2022-10-06T11:39:07.458Z,5.55
2022-10-06T11:41:44.157Z,6.15
2022-10-06T11:44:10.582Z,8.48
2022-10-06T11:46:44.143Z,5.25
2022-10-06T11:49:29.716Z,7.47
2022-10-06T11:52:00.161Z,4.60
2022-10-06T11:54:39.555Z,7.00
2022-10-06T11:57:30.593Z,6.07
2022-10-06T12:00:15.943Z,5.28
2022-10-06T12:02:43.348Z,5.00
2022-10-06T12:05:28.511Z,6.50
2022-10-06T12:07:56.675Z,4.13
2022-10-06T12:10:29.179Z,6.50
2022-10-06T12:13:21.224Z,4.73
2022-10-06T12:17:05.534Z,5.75
2022-10-06T12:18:43.837Z,5.43
2022-10-06T12:21:24.357Z,4.07
2022-10-06T12:23:50.777Z,4.78
2022-10-06T12:26:17.293Z,5.22
2022-10-06T12:28:49.098Z,4.10
2022-10-06T12:31:33.338Z,6.20
2022-10-06T12:34:00.044Z,4.53
2022-10-06T12:36:28.487Z,4.13
2022-10-06T12:39:09.692Z,7.90
2022-10-06T12:41:54.549Z,5.47
2022-10-06T12:44:23.243Z,5.05
2022-10-06T12:46:49.934Z,4.93
2022-10-06T12:49:36.852Z,7.05
2022-10-06T12:52:08.290Z,4.93
2022-10-06T12:54:43.179Z,4.97
2022-10-06T12:57:20.149Z,5.47
2022-10-06T12:59:47.260Z,5.90
2022-10-06T13:02:17.541Z,4.78
2022-10-06T13:04:53.846Z,4.53
2022-10-06T13:07:25.022Z,5.80
2022-10-06T13:09:53.390Z,5.30
2022-10-06T13:12:27.591Z,3.45
2022-10-06T13:15:12.558Z,4.38
2022-10-06T13:18:00.033Z,6.20
2022-10-06T13:20:52.738Z,4.18
2022-10-06T13:23:19.167Z,4.40
2022-10-06T13:26:00.642Z,4.95
2022-10-06T13:28:44.463Z,4.45
2022-10-06T13:31:18.540Z,3.70
2022-10-06T13:33:46.211Z,4.68
2022-10-06T13:36:13.461Z,4.75
2022-10-06T13:38:41.282Z,4.95
2022-10-06T13:41:13.845Z,5.38
2022-10-06T13:43:43.285Z,4.77
2022-10-06T13:46:11.151Z,6.72
2022-10-06T13:48:42.670Z,4.53
2022-10-06T13:51:13.942Z,3.80
2022-10-06T13:53:43.584Z,5.20
2022-10-06T13:56:46.140Z,4.00
2022-10-06T13:59:23.090Z,4.38
2022-10-06T14:01:49.713Z,5.47
2022-10-06T14:04:20.322Z,4.82
2022-10-06T14:06:51.937Z,3.80
2022-10-06T14:09:26.057Z,4.95
2022-10-06T14:11:54.216Z,6.93
2022-10-06T14:14:20.890Z,3.75
2022-10-06T14:16:51.618Z,5.07
2022-10-06T14:19:37.537Z,8.23
2022-10-06T14:22:05.240Z,6.65
2022-10-06T14:24:34.071Z,4.07
2022-10-06T14:27:01.645Z,4.10
2022-10-06T14:29:28.105Z,4.50
2022-10-06T14:31:54.743Z,4.45
2022-10-06T14:34:21.553Z,6.15
2022-10-06T14:36:51.432Z,5.03
2022-10-06T14:39:18.111Z,4.57
2022-10-06T14:41:45.499Z,5.53
2022-10-06T14:44:13.128Z,4.95
2022-10-06T14:46:40.311Z,4.22
2022-10-06T14:49:07.767Z,4.22
2022-10-06T14:51:36.884Z,5.60
2022-10-06T14:54:04.858Z,3.33
2022-10-06T14:56:32.629Z,5.60
2022-10-06T14:59:04.502Z,4.05
2022-10-06T15:01:31.759Z,3.97
2022-10-06T15:03:59.851Z,5.05
2022-10-06T15:06:45.181Z,4.97
2022-10-06T15:09:11.700Z,5.97
2022-10-06T15:11:38.523Z,5.93
2022-10-06T15:14:05.175Z,4.30
2022-10-06T15:16:32.542Z,5.70
2022-10-06T15:18:59.793Z,5.13
2022-10-06T15:21:26.682Z,4.93
2022-10-06T15:24:00.460Z,10.15
2022-10-06T15:26:46.010Z,5.60
2022-10-06T15:29:13.381Z,6.82
2022-10-06T15:31:41.078Z,5.78
2022-10-06T15:34:08.553Z,4.60
2022-10-06T15:36:36.353Z,6.45
2022-10-06T15:39:10.422Z,5.25
2022-10-06T15:41:37.644Z,8.68
2022-10-06T15:44:04.669Z,11.70
2022-10-06T15:46:32.328Z,14.93
2022-10-06T15:49:02.948Z,11.68
2022-10-06T15:51:30.746Z,7.32
2022-10-06T15:54:00.380Z,6.32
2022-10-06T15:56:27.921Z,5.85
2022-10-06T15:58:54.911Z,6.47
2022-10-06T16:01:25.315Z,8.10
2022-10-06T16:03:53.214Z,6.68
2022-10-06T16:06:29.644Z,5.47
2022-10-06T16:08:56.086Z,5.35
2022-10-06T16:11:22.571Z,7.03
2022-10-06T16:13:48.993Z,7.47
2022-10-06T16:16:15.557Z,8.07
2022-10-06T16:18:42.063Z,7.03
2022-10-06T16:21:08.505Z,5.53
2022-10-06T16:23:34.908Z,7.25
2022-10-06T16:26:01.684Z,7.13
2022-10-06T16:28:28.272Z,5.65
2022-10-06T16:30:55.059Z,6.20
2022-10-06T16:33:21.636Z,5.95
2022-10-06T16:35:55.601Z,6.45
2022-10-06T16:38:22.229Z,6.53
2022-10-06T16:40:56.587Z,6.70
2022-10-06T16:43:33.259Z,7.97
2022-10-06T16:46:02.341Z,7.75
2022-10-06T16:48:29.650Z,6.15
2022-10-06T16:51:03.515Z,6.10
2022-10-06T16:53:33.897Z,7.55
2022-10-06T16:56:00.450Z,6.82
2022-10-06T16:58:26.882Z,8.82
2022-10-06T17:00:59.320Z,9.00
2022-10-06T17:03:25.819Z,8.52
2022-10-06T17:05:52.274Z,11.82
2022-10-06T17:08:21.526Z,8.57
2022-10-06T17:10:58.039Z,11.68
2022-10-06T17:13:24.477Z,15.05
2022-10-06T17:15:58.230Z,10.40
2022-10-06T17:18:24.678Z,11.75
2022-10-06T17:20:54.756Z,13.38
2022-10-06T17:23:21.302Z,12.68
2022-10-06T17:25:47.934Z,12.80
2022-10-06T17:28:14.621Z,10.45
2022-10-06T17:30:51.067Z,7.60
2022-10-06T17:33:17.487Z,10.20
2022-10-06T17:35:43.925Z,11.88
2022-10-06T17:38:10.355Z,10.73
2022-10-06T17:40:45.928Z,10.93
2022-10-06T17:43:12.368Z,10.27
2022-10-06T17:45:39.409Z,9.75
2022-10-06T17:48:06.557Z,12.63
2022-10-06T17:50:33.078Z,8.90
2022-10-06T17:52:59.597Z,9.93
2022-10-06T17:55:27.906Z,12.15
2022-10-06T17:57:58.461Z,12.25
2022-10-06T18:00:25.363Z,11.73
2022-10-06T18:02:59.676Z,12.20
2022-10-06T18:05:32.133Z,10.98
2022-10-06T18:08:00.708Z,13.38
2022-10-06T18:10:45.763Z,13.85
2022-10-06T18:13:12.202Z,14.38
2022-10-06T18:15:38.889Z,12.82
2022-10-06T18:18:05.448Z,15.02
2022-10-06T18:20:37.842Z,19.83
2022-10-06T18:25:32.216Z,15.73
2022-10-06T18:27:58.716Z,14.18
2022-10-06T18:30:29.360Z,14.50
2022-10-06T18:38:31.302Z,16.33
2022-10-06T18:40:58.901Z,15.52
2022-10-06T18:43:25.404Z,18.88
2022-10-06T18:46:10.461Z,16.65
2022-10-06T18:48:56.013Z,17.63
2022-10-06T18:51:22.523Z,18.45
2022-10-06T18:53:49.513Z,19.38
2022-10-06T18:56:17.078Z,18.52
2022-10-06T18:58:47.252Z,22.75
2022-10-06T19:01:14.903Z,26.20
2022-10-06T19:03:41.504Z,23.52
2022-10-06T19:06:08.149Z,22.05
2022-10-06T19:08:35.020Z,23.75
2022-10-06T19:11:23.396Z,21.70
2022-10-06T19:13:52.108Z,25.27
2022-10-06T19:16:19.414Z,23.88
2022-10-06T19:18:46.537Z,22.88
2022-10-06T19:21:13.673Z,23.98
2022-10-06T19:23:40.440Z,25.35
2022-10-06T19:26:08.080Z,20.98
2022-10-06T19:28:35.757Z,22.67
2022-10-06T19:31:04.045Z,19.15
2022-10-06T19:33:31.132Z,22.00
2022-10-06T19:35:59.200Z,22.27
2022-10-06T19:38:26.411Z,21.13
2022-10-06T19:40:53.161Z,21.25
2022-10-06T19:43:19.975Z,23.38
2022-10-06T19:45:56.671Z,22.17
2022-10-06T19:48:23.323Z,21.67
2022-10-06T19:50:49.826Z,21.48
2022-10-06T19:53:16.610Z,23.23
2022-10-06T19:55:43.562Z,24.20
2022-10-06T19:58:10.103Z,25.38
2022-10-06T20:00:36.661Z,24.55
2022-10-06T20:03:07.356Z,22.08
2022-10-06T20:05:35.232Z,22.45
2022-10-06T20:08:01.898Z,21.65
2022-10-06T20:10:28.340Z,26.33
2022-10-06T20:12:55.613Z,23.40
2022-10-06T20:15:22.585Z,23.20
2022-10-06T20:17:49.068Z,23.73
2022-10-06T20:20:15.516Z,23.23
2022-10-06T20:22:41.993Z,24.63
2022-10-06T20:25:08.541Z,23.00
2022-10-06T20:27:35.134Z,25.00
2022-10-06T20:30:02.299Z,25.38
2022-10-06T20:32:29.078Z,23.35
2022-10-06T20:34:55.545Z,25.55
2022-10-06T20:37:22.014Z,26.13
2022-10-06T20:40:07.449Z,26.38
2022-10-06T20:42:33.887Z,27.17
2022-10-06T20:45:00.299Z,33.42
2022-10-06T20:47:26.757Z,33.38
2022-10-06T20:49:55.217Z,33.08
2022-10-06T20:52:23.122Z,32.65
2022-10-06T20:54:49.593Z,41.42
2022-10-06T20:57:16.407Z,37.10
2022-10-06T20:59:45.223Z,33.35
2022-10-06T21:02:11.706Z,34.33
2022-10-06T21:04:40.268Z,35.05
2022-10-06T21:07:07.412Z,33.10
2022-10-06T21:09:33.904Z,35.08
2022-10-06T21:12:00.540Z,36.58
2022-10-06T21:14:27.060Z,38.13
2022-10-06T21:16:53.733Z,39.63
2022-10-06T21:19:20.298Z,37.92
2022-10-06T21:21:50.726Z,36.05
2022-10-06T21:24:17.301Z,39.40
2022-10-06T21:26:43.871Z,41.00
2022-10-06T21:29:12.925Z,39.88
2022-10-06T21:31:39.631Z,42.30
2022-10-06T21:34:06.261Z,38.40
2022-10-06T21:36:32.863Z,41.28
2022-10-06T21:39:01.059Z,43.03
2022-10-06T21:41:32.054Z,40.70
2022-10-06T21:44:15.096Z,34.50
2022-10-06T21:46:44.515Z,37.40
2022-10-06T21:49:12.395Z,36.58
2022-10-06T21:51:39.281Z,42.47
2022-10-06T21:54:05.881Z,41.88
2022-10-06T21:56:33.088Z,43.47
2022-10-06T21:58:59.820Z,45.53
2022-10-06T22:01:30.560Z,43.03
2022-10-06T22:03:58.132Z,40.00
2022-10-06T22:06:24.655Z,40.20
2022-10-06T22:08:51.236Z,40.80
2022-10-06T22:11:19.134Z,45.35
2022-10-06T22:13:46.964Z,46.35
2022-10-06T22:16:15.047Z,43.08
2022-10-06T22:18:41.993Z,44.83
2022-10-06T22:21:13.013Z,44.28
2022-10-06T22:23:40.255Z,42.90
2022-10-06T22:26:07.389Z,42.08
2022-10-06T22:28:34.427Z,39.35
2022-10-06T22:31:05.730Z,39.17
2022-10-06T22:33:32.636Z,42.28
2022-10-06T22:35:59.377Z,43.70
2022-10-06T22:38:25.981Z,45.35
2022-10-06T22:40:52.469Z,42.85
2022-10-06T22:43:18.981Z,43.75
2022-10-06T22:45:45.537Z,43.83
2022-10-06T22:48:12.108Z,45.97
2022-10-06T22:50:38.599Z,43.78
2022-10-06T22:53:05.161Z,45.60
2022-10-06T22:55:31.657Z,44.25
2022-10-06T22:57:58.176Z,43.45
2022-10-06T23:00:24.824Z,38.28
2022-10-06T23:02:51.360Z,41.25
2022-10-06T23:05:18.030Z,40.50
2022-10-06T23:07:44.813Z,41.15
2022-10-06T23:10:11.626Z,41.63
2022-10-06T23:12:38.159Z,40.45
2022-10-06T23:15:04.985Z,38.80
2022-10-06T23:17:31.464Z,39.78
2022-10-06T23:19:57.981Z,35.75
2022-10-06T23:22:24.454Z,40.85
2022-10-06T23:24:51.369Z,36.28
2022-10-06T23:27:17.854Z,35.22
2022-10-06T23:29:44.339Z,32.40
2022-10-06T23:32:10.942Z,30.05
2022-10-06T23:34:37.417Z,29.30
2022-10-06T23:37:03.921Z,26.55
2022-10-06T23:39:30.484Z,28.38
2022-10-06T23:41:57.582Z,28.73
2022-10-06T23:44:24.132Z,25.30
2022-10-06T23:46:50.645Z,27.27
2022-10-06T23:49:17.178Z,30.20
2022-10-06T23:51:43.702Z,27.13
2022-10-06T23:54:10.306Z,26.55
2022-10-06T23:56:36.790Z,24.60
2022-10-06T23:59:03.348Z,23.95
